Overseas Long Beach — WAAT — position and weather

sailwx.info

Track history (hours):
 
Tides and Currents Weather Stations Pressure Air Temp Water Temp Dewpoint Dewpoint Depression Visibility Wind Speed Wind Dir Waves Ship Positions

Overseas Long Beach

Owner: ASC Leasing II, Inc., KENNETT SQUARE, PA. More information available from US FCC via Universal Licensing System and Coast Guard Vessel Documentation Center.

Last reported at 2018-May-20 20:10 UTC. Time now 2018-May-25 22:16 UTC.
Position N 29°10' W 094°28'.

Length 181 m; draft 7.7 m.

Type: Tanker. MMSI: 367703000.

Date/timePositionNaut miles runAvg speedWind from/ knotsBaromVisibWave heightAir tempDewpointWater temp
2018-May-20 20:10N 29°10' W 094°28'313.8
2018-May-20 19:59N 29°11' W 094°30'714.0
2018-May-20 19:30N 29°16' W 094°35'612.6
2018-May-20 19:00N 29°20' W 094°41'611.3
2018-May-20 18:30N 29°21' W 094°47'611.2
2018-May-20 18:00N 29°26' W 094°50'510.8
2018-May-20 17:30N 29°31' W 094°53'611.8
2018-May-20 17:00N 29°36' W 094°57'4 7.3
2018-May-20 16:30N 29°37' W 095°01'1 1.1
2018-May-20 16:00N 29°37' W 095°02'0 0.0
2018-May-20 15:27N 29°37' W 095°02'0 0.0
2018-May-20 14:57N 29°37' W 095°02'0 0.0
2018-May-20 14:30N 29°37' W 095°02'0 0.0
2018-May-20 14:00N 29°37' W 095°02'0 0.0
2018-May-20 13:30N 29°37' W 095°02'0 0.0
2018-May-20 13:00N 29°37' W 095°02'0 0.0
2018-May-20 12:30N 29°37' W 095°02'0 0.0
2018-May-20 12:00N 29°37' W 095°02'0 0.0
2018-May-20 11:30N 29°37' W 095°02'0 0.0
2018-May-20 11:00N 29°37' W 095°02'0 0.0
2018-May-20 10:30N 29°37' W 095°02'0 0.0
2018-May-20 10:00N 29°37' W 095°02'0 0.0
2018-May-20 09:30N 29°37' W 095°02'0 0.0
2018-May-20 09:00N 29°37' W 095°02'0 0.0
2018-May-20 08:30N 29°37' W 095°02'0 0.0
2018-May-20 08:00N 29°37' W 095°02'0 0.0
2018-May-20 07:30N 29°37' W 095°02'0 0.0
2018-May-20 07:00N 29°37' W 095°02'0 0.0
2018-May-20 06:30N 29°37' W 095°02'0 0.0
2018-May-20 06:00N 29°37' W 095°02'0 0.0
2018-May-20 05:30N 29°37' W 095°02'0 0.0
2018-May-20 05:00N 29°37' W 095°02'0 0.0
2018-May-20 04:30N 29°37' W 095°02'0 0.0
2018-May-20 04:00N 29°37' W 095°02'0 0.0
2018-May-20 03:30N 29°37' W 095°02'0 0.0
2018-May-20 02:57N 29°37' W 095°02'0 0.0
2018-May-20 02:30N 29°37' W 095°02'0 0.0
2018-May-20 02:00N 29°37' W 095°02'0 0.0
2018-May-20 01:27N 29°37' W 095°02'0 0.0
2018-May-20 01:00N 29°37' W 095°02'0 0.0
2018-May-20 00:30N 29°37' W 095°02'0 0.0
2018-May-20 00:00N 29°37' W 095°02'0 0.0
2018-May-19 23:30N 29°37' W 095°02'0 0.0
2018-May-19 23:00N 29°37' W 095°02'0 0.0
2018-May-19 22:30N 29°37' W 095°02'0 0.0
2018-May-19 22:00N 29°37' W 095°02'0 0.0
2018-May-19 21:30N 29°37' W 095°02'0 0.0
2018-May-19 21:00N 29°37' W 095°02'0 0.0
2018-May-19 20:30N 29°37' W 095°02'0 0.0
2018-May-19 20:00N 29°37' W 095°02'0 0.0
2018-May-19 19:30N 29°37' W 095°02'0 0.0
2018-May-19 19:00N 29°37' W 095°02'0 0.0
2018-May-19 18:30N 29°37' W 095°02'0 0.0
2018-May-19 18:00N 29°37' W 095°02'0 0.0
2018-May-19 17:30N 29°37' W 095°02'0 0.0
2018-May-19 17:00N 29°37' W 095°02'0 0.0
2018-May-19 16:30N 29°37' W 095°02'0 0.0
2018-May-19 16:00N 29°37' W 095°02'0 0.0
2018-May-19 15:30N 29°37' W 095°02'0 0.0
2018-May-19 15:00N 29°37' W 095°02'0 0.0
2018-May-19 14:30N 29°37' W 095°02'0 0.0
2018-May-19 14:00N 29°37' W 095°02'0 0.0
2018-May-19 13:30N 29°37' W 095°02'0 0.0
2018-May-19 13:00N 29°37' W 095°02'0 0.0
2018-May-19 12:30N 29°37' W 095°02'0 0.0
2018-May-19 12:00N 29°37' W 095°02'0 0.0
2018-May-19 11:30N 29°37' W 095°02'0 0.0
2018-May-19 11:00N 29°37' W 095°02'0 0.0
2018-May-19 10:30N 29°37' W 095°02'0 0.0
2018-May-19 10:00N 29°37' W 095°02'0 0.0
2018-May-19 09:31N 29°37' W 095°02'1 1.4
2018-May-19 09:00N 29°37' W 095°01'4 7.3
2018-May-19 08:30N 29°36' W 094°57'611.5
2018-May-19 08:01N 29°31' W 094°53'611.2
2018-May-19 07:30N 29°26' W 094°50'510.8
2018-May-19 07:00N 29°21' W 094°47'510.4
2018-May-19 06:30N 29°20' W 094°41'612.0
2018-May-19 05:59N 29°17' W 094°35'4 0.4
2018-May-18 19:57N 29°17' W 094°30'0 0.0
2018-May-18 18:57N 29°17' W 094°30'3 4.6
2018-May-18 18:23N 29°15' W 094°28'612.2
2018-May-18 17:53N 29°10' W 094°24'1912.3
2018-May-18 16:20N 28°59' W 094°06'412.0
2018-May-18 16:00N 28°57' W 094°02'4 8.2
2018-May-18 15:30N 28°55' W 093°58'611.0
2018-May-18 14:59N 28°51' W 093°53'612.0
2018-May-18 14:30N 28°48' W 093°48'612.0
2018-May-18 14:00N 28°44' W 093°42'612.0
2018-May-18 13:31N 28°41' W 093°37'611.9
2018-May-18 13:00N 28°37' W 093°31'612.1
2018-May-18 12:31N 28°34' W 093°26'612.1
2018-May-18 12:00N 28°30' W 093°20'713.2
2018-May-18 11:30N 28°26' W 093°14'714.7
2018-May-18 11:00N 28°22' W 093°07'714.5
2018-May-18 10:30N 28°18' W 093°01'714.8
2018-May-18 10:00N 28°14' W 092°54'714.9
2018-May-18 09:30N 28°08' W 092°48'815.1
2018-May-18 09:00N 28°01' W 092°44'715.1
2018-May-18 08:30N 27°55' W 092°39'715.0
2018-May-18 08:00N 27°50' W 092°33'1615.2
2018-May-18 06:58N 27°38' W 092°21'3232.8
2018-May-18 06:00N 27°12' W 092°00'3 2.8 230 / 61012.310.8 25.522.6
2018-May-18 04:53N 27°14' W 091°57'4415.3
2018-May-18 01:59N 26°41' W 091°24'14117.7
2018-May-17 18:00N 25°24' W 089°12'19015.8 300 / 21013.910.8 28.522.7
2018-May-17 06:00N 23°18' W 086°36'18715.6 170 / 141012.810.8 21.518.3
2018-May-16 18:00N 20°48' W 084°36'20715.9 130 / 351014.1 5.4 24.521.528.2
2018-May-16 05:00N 18°12' W 082°12'53414.8 110 / 321012.710.8 23.019.9
2018-May-14 16:53N 09°35' W 079°56'614.9
2018-May-14 16:30N 09°29' W 079°55'713.4
2018-May-14 16:00N 09°23' W 079°55'510.3
2018-May-14 15:30N 09°18' W 079°55'1 2.0
2018-May-14 15:00N 09°17' W 079°55'0 0.8
2018-May-14 14:30N 09°16' W 079°55'0 0.4
2018-May-14 14:00N 09°16' W 079°55'0 0.5
2018-May-14 13:30N 09°16' W 079°55'2 4.3
2018-May-14 13:00N 09°14' W 079°55'2 3.0
2018-May-14 12:28N 09°12' W 079°55'  
2018-May-11 18:00N 09°00' W 089°54'   290 / 181012.410.8 32.025.030.5
Track history (hours):
 
Tides and Currents Weather Stations Pressure Air Temp Water Temp Dewpoint Dewpoint Depression Visibility Wind Speed Wind Dir Waves Ship Positions

Overseas Long Beach

Owner: ASC Leasing II, Inc., KENNETT SQUARE, PA. More information available from US FCC via Universal Licensing System and Coast Guard Vessel Documentation Center.

Last reported at 2018-May-20 20:10 UTC. Time now 2018-May-25 22:16 UTC.
Position N 29°10' W 094°28'.

Length 181 m; draft 7.7 m.

Type: Tanker. MMSI: 367703000.

Date/timePositionNaut miles runAvg speedWind from/ knotsBaromVisibWave heightAir tempDewpointWater temp
2018-May-20 20:10N 29°10' W 094°28'313.8
2018-May-20 19:59N 29°11' W 094°30'714.0
2018-May-20 19:30N 29°16' W 094°35'612.6
2018-May-20 19:00N 29°20' W 094°41'611.3
2018-May-20 18:30N 29°21' W 094°47'611.2
2018-May-20 18:00N 29°26' W 094°50'510.8
2018-May-20 17:30N 29°31' W 094°53'611.8
2018-May-20 17:00N 29°36' W 094°57'4 7.3
2018-May-20 16:30N 29°37' W 095°01'1 1.1
2018-May-20 16:00N 29°37' W 095°02'0 0.0
2018-May-20 15:27N 29°37' W 095°02'0 0.0
2018-May-20 14:57N 29°37' W 095°02'0 0.0
2018-May-20 14:30N 29°37' W 095°02'0 0.0
2018-May-20 14:00N 29°37' W 095°02'0 0.0
2018-May-20 13:30N 29°37' W 095°02'0 0.0
2018-May-20 13:00N 29°37' W 095°02'0 0.0
2018-May-20 12:30N 29°37' W 095°02'0 0.0
2018-May-20 12:00N 29°37' W 095°02'0 0.0
2018-May-20 11:30N 29°37' W 095°02'0 0.0
2018-May-20 11:00N 29°37' W 095°02'0 0.0
2018-May-20 10:30N 29°37' W 095°02'0 0.0
2018-May-20 10:00N 29°37' W 095°02'0 0.0
2018-May-20 09:30N 29°37' W 095°02'0 0.0
2018-May-20 09:00N 29°37' W 095°02'0 0.0
2018-May-20 08:30N 29°37' W 095°02'0 0.0
2018-May-20 08:00N 29°37' W 095°02'0 0.0
2018-May-20 07:30N 29°37' W 095°02'0 0.0
2018-May-20 07:00N 29°37' W 095°02'0 0.0
2018-May-20 06:30N 29°37' W 095°02'0 0.0
2018-May-20 06:00N 29°37' W 095°02'0 0.0
2018-May-20 05:30N 29°37' W 095°02'0 0.0
2018-May-20 05:00N 29°37' W 095°02'0 0.0
2018-May-20 04:30N 29°37' W 095°02'0 0.0
2018-May-20 04:00N 29°37' W 095°02'0 0.0
2018-May-20 03:30N 29°37' W 095°02'0 0.0
2018-May-20 02:57N 29°37' W 095°02'0 0.0
2018-May-20 02:30N 29°37' W 095°02'0 0.0
2018-May-20 02:00N 29°37' W 095°02'0 0.0
2018-May-20 01:27N 29°37' W 095°02'0 0.0
2018-May-20 01:00N 29°37' W 095°02'0 0.0
2018-May-20 00:30N 29°37' W 095°02'0 0.0
2018-May-20 00:00N 29°37' W 095°02'0 0.0
2018-May-19 23:30N 29°37' W 095°02'0 0.0
2018-May-19 23:00N 29°37' W 095°02'0 0.0
2018-May-19 22:30N 29°37' W 095°02'0 0.0
2018-May-19 22:00N 29°37' W 095°02'0 0.0
2018-May-19 21:30N 29°37' W 095°02'0 0.0
2018-May-19 21:00N 29°37' W 095°02'0 0.0
2018-May-19 20:30N 29°37' W 095°02'0 0.0
2018-May-19 20:00N 29°37' W 095°02'0 0.0
2018-May-19 19:30N 29°37' W 095°02'0 0.0
2018-May-19 19:00N 29°37' W 095°02'0 0.0
2018-May-19 18:30N 29°37' W 095°02'0 0.0
2018-May-19 18:00N 29°37' W 095°02'0 0.0
2018-May-19 17:30N 29°37' W 095°02'0 0.0
2018-May-19 17:00N 29°37' W 095°02'0 0.0
2018-May-19 16:30N 29°37' W 095°02'0 0.0
2018-May-19 16:00N 29°37' W 095°02'0 0.0
2018-May-19 15:30N 29°37' W 095°02'0 0.0
2018-May-19 15:00N 29°37' W 095°02'0 0.0
2018-May-19 14:30N 29°37' W 095°02'0 0.0
2018-May-19 14:00N 29°37' W 095°02'0 0.0
2018-May-19 13:30N 29°37' W 095°02'0 0.0
2018-May-19 13:00N 29°37' W 095°02'0 0.0
2018-May-19 12:30N 29°37' W 095°02'0 0.0
2018-May-19 12:00N 29°37' W 095°02'0 0.0
2018-May-19 11:30N 29°37' W 095°02'0 0.0
2018-May-19 11:00N 29°37' W 095°02'0 0.0
2018-May-19 10:30N 29°37' W 095°02'0 0.0
2018-May-19 10:00N 29°37' W 095°02'0 0.0
2018-May-19 09:31N 29°37' W 095°02'1 1.4
2018-May-19 09:00N 29°37' W 095°01'4 7.3
2018-May-19 08:30N 29°36' W 094°57'611.5
2018-May-19 08:01N 29°31' W 094°53'611.2
2018-May-19 07:30N 29°26' W 094°50'510.8
2018-May-19 07:00N 29°21' W 094°47'510.4
2018-May-19 06:30N 29°20' W 094°41'612.0
2018-May-19 05:59N 29°17' W 094°35'4 0.4
2018-May-18 19:57N 29°17' W 094°30'0 0.0
2018-May-18 18:57N 29°17' W 094°30'3 4.6
2018-May-18 18:23N 29°15' W 094°28'612.2
2018-May-18 17:53N 29°10' W 094°24'1912.3
2018-May-18 16:20N 28°59' W 094°06'412.0
2018-May-18 16:00N 28°57' W 094°02'4 8.2
2018-May-18 15:30N 28°55' W 093°58'611.0
2018-May-18 14:59N 28°51' W 093°53'612.0
2018-May-18 14:30N 28°48' W 093°48'612.0
2018-May-18 14:00N 28°44' W 093°42'612.0
2018-May-18 13:31N 28°41' W 093°37'611.9
2018-May-18 13:00N 28°37' W 093°31'612.1
2018-May-18 12:31N 28°34' W 093°26'612.1
2018-May-18 12:00N 28°30' W 093°20'713.2
2018-May-18 11:30N 28°26' W 093°14'714.7
2018-May-18 11:00N 28°22' W 093°07'714.5
2018-May-18 10:30N 28°18' W 093°01'714.8
2018-May-18 10:00N 28°14' W 092°54'714.9
2018-May-18 09:30N 28°08' W 092°48'815.1
2018-May-18 09:00N 28°01' W 092°44'715.1
2018-May-18 08:30N 27°55' W 092°39'715.0
2018-May-18 08:00N 27°50' W 092°33'1615.2
2018-May-18 06:58N 27°38' W 092°21'3232.8
2018-May-18 06:00N 27°12' W 092°00'3 2.8 230 / 61012.310.8 25.522.6
2018-May-18 04:53N 27°14' W 091°57'4415.3
2018-May-18 01:59N 26°41' W 091°24'14117.7
2018-May-17 18:00N 25°24' W 089°12'19015.8 300 / 21013.910.8 28.522.7
2018-May-17 06:00N 23°18' W 086°36'18715.6 170 / 141012.810.8 21.518.3
2018-May-16 18:00N 20°48' W 084°36'20715.9 130 / 351014.1 5.4 24.521.528.2
2018-May-16 05:00N 18°12' W 082°12'53414.8 110 / 321012.710.8 23.019.9
2018-May-14 16:53N 09°35' W 079°56'614.9
2018-May-14 16:30N 09°29' W 079°55'713.4
2018-May-14 16:00N 09°23' W 079°55'510.3
2018-May-14 15:30N 09°18' W 079°55'1 2.0
2018-May-14 15:00N 09°17' W 079°55'0 0.8
2018-May-14 14:30N 09°16' W 079°55'0 0.4
2018-May-14 14:00N 09°16' W 079°55'0 0.5
2018-May-14 13:30N 09°16' W 079°55'2 4.3
2018-May-14 13:00N 09°14' W 079°55'2 3.0
2018-May-14 12:28N 09°12' W 079°55'  
2018-May-11 18:00N 09°00' W 089°54'   290 / 181012.410.8 32.025.030.5

Dump ship's entire track history